createdAt,value
2022-11-29T00:00:30.145Z,101271.25
2022-11-29T00:02:34.559Z,101274.75
2022-11-29T00:04:41.788Z,101278.91
2022-11-29T00:06:48.045Z,101274.84
2022-11-29T00:08:53.901Z,101281.03
2022-11-29T00:10:55.681Z,101293.09
2022-11-29T00:13:13.121Z,101278.47
2022-11-29T00:15:15.760Z,101282.16
2022-11-29T00:17:22.476Z,101279.66
2022-11-29T00:19:25.778Z,101280.63
2022-11-29T00:21:28.618Z,101283.97
2022-11-29T00:23:30.366Z,101283.34
2022-11-29T00:25:32.776Z,101290.34
2022-11-29T00:27:34.905Z,101286.34
2022-11-29T00:29:37.040Z,101281.25
2022-11-29T00:31:39.909Z,101286.56
2022-11-29T00:33:43.077Z,101284.19
2022-11-29T00:35:45.876Z,101280.78
2022-11-29T00:37:48.050Z,101280.09
2022-11-29T00:39:50.856Z,101290.53
2022-11-29T00:41:52.816Z,101286.97
2022-11-29T00:43:54.897Z,101303.53
2022-11-29T00:45:57.929Z,101300.88
2022-11-29T00:48:01.242Z,101303.53
2022-11-29T00:50:03.726Z,101294.06
2022-11-29T00:52:09.197Z,101299.22
2022-11-29T00:54:15.078Z,101299.31
2022-11-29T00:56:17.666Z,101303.53
2022-11-29T00:58:20.921Z,101306.09
2022-11-29T01:00:23.597Z,101308.97
2022-11-29T01:02:26.206Z,101305.47
2022-11-29T01:04:28.206Z,101307.28
2022-11-29T01:06:30.590Z,101303.03
2022-11-29T01:08:33.583Z,101302.22
2022-11-29T01:10:36.216Z,101306.41
2022-11-29T01:12:41.986Z,101312.41
2022-11-29T01:14:44.461Z,101306.50
2022-11-29T01:16:46.756Z,101307.19
2022-11-29T01:18:52.192Z,101313.28
2022-11-29T01:21:00.911Z,101309.81
2022-11-29T01:23:11.927Z,101309.13
2022-11-29T01:25:14.547Z,101320.16
2022-11-29T01:27:16.510Z,101326.06
2022-11-29T01:29:19.251Z,101329.44
2022-11-29T01:31:26.085Z,101331.25
2022-11-29T01:33:28.162Z,101339.00
2022-11-29T01:35:31.419Z,101340.69
2022-11-29T01:37:34.417Z,101342.50
2022-11-29T01:39:36.224Z,101339.00
2022-11-29T01:41:38.608Z,101346.72
2022-11-29T01:44:00.241Z,101347.63
2022-11-29T01:46:02.500Z,101350.28
2022-11-29T01:48:04.876Z,101352.59
2022-11-29T01:50:08.451Z,101360.44
2022-11-29T01:52:15.852Z,101361.88
2022-11-29T01:54:19.660Z,101362.88
2022-11-29T01:56:23.311Z,101368.94
2022-11-29T01:58:25.301Z,101373.16
2022-11-29T02:00:27.401Z,101369.59
2022-11-29T02:02:35.752Z,101377.22
2022-11-29T02:04:39.906Z,101376.59
2022-11-29T02:06:42.822Z,101374.81
2022-11-29T02:08:44.926Z,101378.31
2022-11-29T02:11:00.232Z,101376.59
2022-11-29T02:13:23.402Z,101377.38
2022-11-29T02:15:31.358Z,101395.16
2022-11-29T02:17:47.589Z,101393.41
2022-11-29T02:20:11.146Z,101393.03
2022-11-29T02:22:24.505Z,101399.09
2022-11-29T02:24:36.610Z,101409.28
2022-11-29T02:26:58.187Z,101405.06
2022-11-29T02:29:26.105Z,101407.59
2022-11-29T02:31:38.857Z,101407.63
2022-11-29T02:34:11.731Z,101414.19
2022-11-29T02:36:20.861Z,101421.91
2022-11-29T02:38:42.485Z,101413.38
2022-11-29T02:41:01.836Z,101419.47
2022-11-29T02:43:16.952Z,101422.91
2022-11-29T02:45:29.786Z,101423.69
2022-11-29T02:47:51.486Z,101426.34
2022-11-29T02:49:56.467Z,101426.22
2022-11-29T02:52:04.365Z,101429.66
2022-11-29T02:54:14.771Z,101430.50
2022-11-29T02:56:33.834Z,101433.09
2022-11-29T02:58:50.877Z,101433.00
2022-11-29T03:01:22.011Z,101439.06
2022-11-29T03:03:36.837Z,101441.31
2022-11-29T03:05:59.350Z,101447.28
2022-11-29T03:08:16.098Z,101448.22
2022-11-29T03:10:29.142Z,101445.56
2022-11-29T03:12:41.791Z,101451.66
2022-11-29T03:14:57.831Z,101462.63
2022-11-29T03:17:10.192Z,101463.69
2022-11-29T03:19:31.228Z,101467.91
2022-11-29T03:21:52.670Z,101466.25
2022-11-29T03:23:59.326Z,101474.78
2022-11-29T03:26:09.762Z,101475.63
2022-11-29T03:28:19.139Z,101482.44
2022-11-29T03:30:21.891Z,101489.25
2022-11-29T03:32:34.097Z,101495.13
2022-11-29T03:34:57.331Z,101490.69
2022-11-29T03:37:10.592Z,101491.56
2022-11-29T03:39:21.191Z,101496.66
2022-11-29T03:41:40.492Z,101506.09
2022-11-29T03:43:43.645Z,101498.25
2022-11-29T03:46:01.531Z,101499.28
2022-11-29T03:48:12.117Z,101507.03
2022-11-29T03:50:23.641Z,101508.59
2022-11-29T03:52:29.181Z,101510.28
2022-11-29T03:54:50.770Z,101513.72
2022-11-29T03:56:53.836Z,101519.63
2022-11-29T03:59:07.666Z,101523.13
2022-11-29T04:01:23.253Z,101519.00
2022-11-29T04:03:34.216Z,101522.34
2022-11-29T04:05:45.595Z,101532.38
2022-11-29T04:07:57.468Z,101531.31
2022-11-29T04:10:19.366Z,101535.66
2022-11-29T04:12:31.695Z,101538.97
2022-11-29T04:14:45.911Z,101546.56
2022-11-29T04:16:59.246Z,101541.41
2022-11-29T04:19:12.281Z,101544.63
2022-11-29T04:21:24.477Z,101542.88
2022-11-29T04:23:52.910Z,101541.72
2022-11-29T04:26:05.528Z,101552.09
2022-11-29T04:28:31.501Z,101546.09
2022-11-29T04:30:53.926Z,101546.72
2022-11-29T04:33:15.703Z,101550.81
2022-11-29T04:35:34.505Z,101560.16
2022-11-29T04:37:46.823Z,101553.31
2022-11-29T04:39:58.837Z,101565.28
2022-11-29T04:42:19.270Z,101558.41
2022-11-29T04:44:40.251Z,101565.19
2022-11-29T04:46:45.415Z,101564.25
2022-11-29T04:49:00.596Z,101565.13
2022-11-29T04:51:13.801Z,101570.16
2022-11-29T04:53:31.003Z,101569.44
2022-11-29T04:55:34.346Z,101564.19
2022-11-29T04:57:48.688Z,101564.19
2022-11-29T05:00:00.756Z,101568.09
2022-11-29T05:02:22.339Z,101581.53
2022-11-29T05:04:33.690Z,101574.06
2022-11-29T05:06:55.631Z,101572.88
2022-11-29T05:09:04.900Z,101581.38
2022-11-29T05:11:26.994Z,101573.00
2022-11-29T05:13:48.480Z,101585.63
2022-11-29T05:16:10.389Z,101589.66
2022-11-29T05:18:31.366Z,101590.72
2022-11-29T05:20:38.986Z,101594.91
2022-11-29T05:22:51.231Z,101596.72
2022-11-29T05:24:56.725Z,101598.63
2022-11-29T05:27:18.237Z,101600.31
2022-11-29T05:29:39.385Z,101606.16
2022-11-29T05:31:56.654Z,101608.44
2022-11-29T05:34:20.157Z,101612.69
2022-11-29T05:36:38.765Z,101613.69
2022-11-29T05:38:50.830Z,101606.66
2022-11-29T05:41:10.370Z,101616.25
2022-11-29T05:43:22.293Z,101616.13
2022-11-29T05:45:34.376Z,101616.94
2022-11-29T05:47:46.879Z,101615.72
2022-11-29T05:49:59.706Z,101618.28
2022-11-29T05:52:20.875Z,101618.94
2022-11-29T05:54:42.566Z,101627.34
2022-11-29T05:57:01.536Z,101624.94
2022-11-29T05:59:07.980Z,101628.34
2022-11-29T06:01:18.571Z,101631.84
2022-11-29T06:03:36.301Z,101641.38
2022-11-29T06:05:47.183Z,101638.06
2022-11-29T06:07:58.342Z,101632.00
2022-11-29T06:10:05.197Z,101638.22
2022-11-29T06:12:18.193Z,101642.38
2022-11-29T06:14:44.583Z,101633.28
2022-11-29T06:17:02.047Z,101640.16
2022-11-29T06:19:23.471Z,101642.97
2022-11-29T06:21:27.530Z,101642.78
2022-11-29T06:23:49.406Z,101645.41
2022-11-29T06:26:04.002Z,101652.13
2022-11-29T06:28:23.097Z,101654.41
2022-11-29T06:30:35.781Z,101659.53
2022-11-29T06:32:44.114Z,101659.59
2022-11-29T06:34:59.233Z,101668.97
2022-11-29T06:37:13.830Z,101674.00
2022-11-29T06:39:15.745Z,101678.25
2022-11-29T06:41:21.540Z,101685.25
2022-11-29T06:43:25.745Z,101685.31
2022-11-29T06:45:28.226Z,101681.81
2022-11-29T06:47:40.720Z,101681.25
2022-11-29T06:50:01.445Z,101681.31
2022-11-29T06:52:13.737Z,101687.06
2022-11-29T06:54:25.105Z,101680.25
2022-11-29T06:56:41.976Z,101683.06
2022-11-29T06:58:56.951Z,101684.63
2022-11-29T07:01:15.022Z,101695.03
2022-11-29T07:03:26.605Z,101700.78
2022-11-29T07:05:31.634Z,101694.19
2022-11-29T07:07:35.186Z,101709.25
2022-11-29T07:09:37.592Z,101706.97
2022-11-29T07:11:40.115Z,101705.28
2022-11-29T07:13:42.381Z,101708.66
2022-11-29T07:15:53.922Z,101706.72
2022-11-29T07:18:15.015Z,101720.56
2022-11-29T07:20:32.053Z,101723.25
2022-11-29T07:22:43.181Z,101729.34
2022-11-29T07:25:00.086Z,101731.19
2022-11-29T07:27:15.762Z,101731.97
2022-11-29T07:29:36.321Z,101746.25
2022-11-29T07:31:57.186Z,101747.81
2022-11-29T07:34:07.806Z,101743.69
2022-11-29T07:36:18.526Z,101746.25
2022-11-29T07:38:35.120Z,101745.31
2022-11-29T07:40:51.241Z,101744.41
2022-11-29T07:43:22.072Z,101757.50
2022-11-29T07:45:29.507Z,101759.06
2022-11-29T07:47:35.781Z,101761.50
2022-11-29T07:49:38.007Z,101766.78
2022-11-29T07:51:39.893Z,101765.16
2022-11-29T07:53:44.012Z,101767.03
2022-11-29T07:55:46.541Z,101776.34
2022-11-29T07:57:49.868Z,101774.72
2022-11-29T07:59:51.746Z,101778.03
2022-11-29T08:01:53.588Z,101775.34
2022-11-29T08:03:55.356Z,101784.44
2022-11-29T08:05:57.078Z,101781.88
2022-11-29T08:08:00.148Z,101788.88
2022-11-29T08:10:02.986Z,101788.63
2022-11-29T08:12:05.071Z,101798.72
2022-11-29T08:14:06.980Z,101795.38
2022-11-29T08:16:08.991Z,101800.59
2022-11-29T08:18:10.837Z,101802.28
2022-11-29T08:20:14.657Z,101802.06
2022-11-29T08:22:16.401Z,101797.72
2022-11-29T08:24:18.317Z,101802.94
2022-11-29T08:26:24.469Z,101809.81
2022-11-29T08:28:30.116Z,101810.50
2022-11-29T08:30:31.937Z,101814.81
2022-11-29T08:32:34.690Z,101818.94
2022-11-29T08:34:36.630Z,101817.91
2022-11-29T08:36:38.705Z,101820.56
2022-11-29T08:38:40.699Z,101823.03
2022-11-29T08:40:42.813Z,101828.16
2022-11-29T08:42:44.986Z,101828.97
2022-11-29T08:44:48.217Z,101840.00
2022-11-29T08:47:00.111Z,101840.75
2022-11-29T08:49:02.171Z,101846.00
2022-11-29T08:51:05.207Z,101847.63
2022-11-29T08:53:17.037Z,101847.50
2022-11-29T08:55:20.826Z,101849.38
2022-11-29T08:57:40.270Z,101845.00
2022-11-29T08:59:45.143Z,101844.69
2022-11-29T09:01:47.014Z,101835.13
2022-11-29T09:03:58.127Z,101829.09
2022-11-29T09:06:10.499Z,101834.94
2022-11-29T09:08:14.236Z,101834.06
2022-11-29T09:10:16.039Z,101830.56
2022-11-29T09:12:17.821Z,101835.06
2022-11-29T09:14:20.135Z,101833.56
2022-11-29T09:16:25.613Z,101825.78
2022-11-29T09:18:28.997Z,101826.97
2022-11-29T09:20:31.363Z,101824.03
2022-11-29T09:22:33.216Z,101808.97
2022-11-29T09:24:34.991Z,101815.47
2022-11-29T09:26:38.183Z,101806.00
2022-11-29T09:28:40.108Z,101812.84
2022-11-29T09:30:41.909Z,101814.66
2022-11-29T09:32:43.792Z,101822.72
2022-11-29T09:34:45.889Z,101825.31
2022-11-29T09:36:48.356Z,101835.75
2022-11-29T09:38:50.241Z,101841.88
2022-11-29T09:40:55.521Z,101852.34
2022-11-29T09:43:06.607Z,101854.22
2022-11-29T09:45:11.086Z,101862.66
2022-11-29T09:47:28.717Z,101869.97
2022-11-29T09:49:39.477Z,101875.03
2022-11-29T09:51:50.937Z,101876.22
2022-11-29T09:54:12.144Z,101884.94
2022-11-29T09:56:18.722Z,101897.56
2022-11-29T09:58:26.339Z,101896.28
2022-11-29T10:00:29.441Z,101896.28
2022-11-29T10:02:40.251Z,101895.50
2022-11-29T10:04:45.187Z,101897.91
2022-11-29T10:07:14.374Z,101899.00
2022-11-29T10:09:19.861Z,101899.81
2022-11-29T10:11:28.540Z,101908.47
2022-11-29T10:13:35.003Z,101892.31
2022-11-29T10:15:43.275Z,101895.63
2022-11-29T10:17:52.621Z,101897.38
2022-11-29T10:20:02.792Z,101901.78
2022-11-29T10:22:14.235Z,101904.34
2022-11-29T10:24:20.473Z,101903.47
2022-11-29T10:26:25.913Z,101903.31
2022-11-29T10:28:33.098Z,101905.75
2022-11-29T10:30:35.560Z,101907.66
2022-11-29T10:32:37.456Z,101903.31
2022-11-29T10:34:40.200Z,101898.72
2022-11-29T10:36:54.169Z,101900.53
2022-11-29T10:39:01.916Z,101908.31
2022-11-29T10:41:09.151Z,101902.09
2022-11-29T10:43:10.955Z,101901.88
2022-11-29T10:45:28.160Z,101897.75
2022-11-29T10:47:31.090Z,101894.84
2022-11-29T10:49:36.526Z,101904.53
2022-11-29T10:51:39.170Z,101902.16
2022-11-29T10:53:40.970Z,101905.41
2022-11-29T10:55:53.321Z,101909.91
2022-11-29T10:58:09.045Z,101902.16
2022-11-29T11:00:12.080Z,101907.22
2022-11-29T11:02:19.946Z,101908.22
2022-11-29T11:04:29.323Z,101904.88
2022-11-29T11:06:45.996Z,101907.72
2022-11-29T11:08:53.199Z,101908.97
2022-11-29T11:11:01.215Z,101916.03
2022-11-29T11:13:07.245Z,101917.72
2022-11-29T11:15:28.726Z,101909.28
2022-11-29T11:17:34.018Z,101921.81
2022-11-29T11:19:36.436Z,101924.97
2022-11-29T11:21:39.556Z,101927.69
2022-11-29T11:23:45.307Z,101935.25
2022-11-29T11:25:50.261Z,101929.06
2022-11-29T11:27:52.171Z,101928.44
2022-11-29T11:29:54.050Z,101926.66
2022-11-29T11:31:58.261Z,101929.56
2022-11-29T11:34:19.312Z,101921.94
2022-11-29T11:36:28.976Z,101916.91
2022-11-29T11:38:31.476Z,101911.41
2022-11-29T11:40:34.702Z,101904.59
2022-11-29T11:42:41.102Z,101907.09
2022-11-29T11:44:49.908Z,101905.41
2022-11-29T11:46:52.587Z,101908.28
2022-11-29T11:48:54.582Z,101913.03
2022-11-29T11:50:59.771Z,101902.31
2022-11-29T11:53:06.522Z,101905.78
2022-11-29T11:55:21.903Z,101902.59
2022-11-29T11:57:25.405Z,101904.28
2022-11-29T11:59:28.157Z,101908.28
2022-11-29T12:01:38.020Z,101904.91
2022-11-29T12:03:45.856Z,101904.22
2022-11-29T12:05:50.743Z,101901.59
2022-11-29T12:08:07.848Z,101901.09
2022-11-29T12:10:18.885Z,101899.09
2022-11-29T12:12:26.236Z,101898.13
2022-11-29T12:14:38.320Z,101898.88
2022-11-29T12:16:41.353Z,101893.75
2022-11-29T12:18:49.451Z,101892.00
2022-11-29T12:21:05.117Z,101891.25
2022-11-29T12:23:14.731Z,101894.91
2022-11-29T12:25:30.043Z,101899.97
2022-11-29T12:27:32.501Z,101901.38
2022-11-29T12:29:35.425Z,101904.53
2022-11-29T12:31:40.719Z,101899.53
2022-11-29T12:33:50.467Z,101902.03
2022-11-29T12:36:10.527Z,101908.03
2022-11-29T12:38:28.771Z,101896.88
2022-11-29T12:40:50.765Z,101901.28
2022-11-29T12:43:06.377Z,101899.91
2022-11-29T12:45:18.138Z,101894.75
2022-11-29T12:47:35.755Z,101894.91
2022-11-29T12:49:51.134Z,101900.84
2022-11-29T12:52:01.466Z,101901.06
2022-11-29T12:54:16.402Z,101904.78
2022-11-29T12:56:28.796Z,101903.91
2022-11-29T12:58:41.348Z,101914.25
2022-11-29T13:01:15.294Z,101911.69
2022-11-29T13:03:26.338Z,101911.34
2022-11-29T13:05:47.146Z,101913.28
2022-11-29T13:08:00.137Z,101915.59
2022-11-29T13:10:18.358Z,101912.88
2022-11-29T13:12:33.433Z,101910.22
2022-11-29T13:14:46.298Z,101919.84
2022-11-29T13:16:57.142Z,101909.34
2022-11-29T13:18:59.171Z,101907.53
2022-11-29T13:21:10.824Z,101914.56
2022-11-29T13:23:39.249Z,101919.34
2022-11-29T13:25:47.356Z,101914.84
2022-11-29T13:28:00.302Z,101924.69
2022-11-29T13:30:02.738Z,101925.19
2022-11-29T13:32:10.092Z,101930.63
2022-11-29T13:34:27.797Z,101925.94
2022-11-29T13:36:40.575Z,101927.31
2022-11-29T13:38:46.883Z,101928.94
2022-11-29T13:41:02.738Z,101932.50
2022-11-29T13:43:19.816Z,101927.38
2022-11-29T13:45:29.278Z,101929.38
2022-11-29T13:47:31.148Z,101931.88
2022-11-29T13:49:53.157Z,101931.81
2022-11-29T13:52:06.567Z,101933.03
2022-11-29T13:54:27.042Z,101932.81
2022-11-29T13:56:36.288Z,101925.25
2022-11-29T13:58:40.271Z,101933.63
2022-11-29T14:00:44.109Z,101928.50
2022-11-29T14:02:46.330Z,101931.06
2022-11-29T14:04:48.553Z,101933.03
2022-11-29T14:07:01.286Z,101929.38
2022-11-29T14:09:22.518Z,101927.91
2022-11-29T14:11:30.108Z,101928.00
2022-11-29T14:13:38.254Z,101924.84
2022-11-29T14:15:42.432Z,101927.84
2022-11-29T14:17:54.987Z,101924.31
2022-11-29T14:20:28.082Z,101920.78
2022-11-29T14:22:30.501Z,101927.84
2022-11-29T14:24:32.772Z,101928.81
2022-11-29T14:26:34.831Z,101929.50
2022-11-29T14:28:39.758Z,101925.06
2022-11-29T14:30:43.876Z,101926.88
2022-11-29T14:33:05.276Z,101930.41
2022-11-29T14:35:11.519Z,101917.66
2022-11-29T14:37:25.196Z,101919.69
2022-11-29T14:39:34.322Z,101916.41
2022-11-29T14:41:49.446Z,101926.56
2022-11-29T14:44:04.081Z,101926.00
2022-11-29T14:46:29.017Z,101928.63
2022-11-29T14:48:33.356Z,101930.44
2022-11-29T14:50:36.768Z,101928.75
2022-11-29T14:52:49.900Z,101926.44
2022-11-29T14:54:58.474Z,101920.28
2022-11-29T14:57:30.376Z,101916.03
2022-11-29T14:59:51.836Z,101915.59
2022-11-29T15:01:54.088Z,101922.91
2022-11-29T15:03:56.582Z,101922.16
2022-11-29T15:06:11.796Z,101925.75
2022-11-29T15:08:33.022Z,101933.44
2022-11-29T15:10:39.387Z,101936.84
2022-11-29T15:12:41.496Z,101933.25
2022-11-29T15:14:54.022Z,101931.50
2022-11-29T15:17:06.369Z,101937.94
2022-11-29T15:19:27.099Z,101939.19
2022-11-29T15:21:42.118Z,101943.69
2022-11-29T15:23:44.607Z,101944.03
2022-11-29T15:25:50.262Z,101941.91
2022-11-29T15:27:53.777Z,101941.19
2022-11-29T15:29:55.786Z,101948.44
2022-11-29T15:32:01.918Z,101945.88
2022-11-29T15:34:03.936Z,101954.41
2022-11-29T15:36:08.564Z,101959.44
2022-11-29T15:38:18.150Z,101956.34
2022-11-29T15:40:39.334Z,101960.22
2022-11-29T15:42:43.827Z,101961.47
2022-11-29T15:44:49.044Z,101963.97
2022-11-29T15:46:51.172Z,101956.13
2022-11-29T15:48:53.813Z,101957.28
2022-11-29T15:51:06.119Z,101955.69
2022-11-29T15:53:12.987Z,101953.59
2022-11-29T15:55:15.302Z,101958.38
2022-11-29T15:57:25.310Z,101960.53
2022-11-29T15:59:39.180Z,101963.16
2022-11-29T16:01:44.799Z,101965.03
2022-11-29T16:03:48.947Z,101955.75
2022-11-29T16:05:57.858Z,101961.75
2022-11-29T16:08:19.236Z,101959.50
2022-11-29T16:10:29.255Z,101967.47
2022-11-29T16:12:35.683Z,101972.59
2022-11-29T16:14:50.296Z,101979.44
2022-11-29T16:16:56.226Z,101982.69
2022-11-29T16:19:10.824Z,101981.03
2022-11-29T16:21:22.718Z,101978.63
2022-11-29T16:23:35.561Z,101981.28
2022-11-29T16:25:54.401Z,101969.06
2022-11-29T16:27:57.078Z,101976.81
2022-11-29T16:30:00.360Z,101972.69
2022-11-29T16:32:22.229Z,101963.97
2022-11-29T16:34:30.293Z,101974.75
2022-11-29T16:36:32.208Z,101974.19
2022-11-29T16:38:34.506Z,101972.00
2022-11-29T16:40:36.466Z,101974.47
2022-11-29T16:42:38.799Z,101974.31
2022-11-29T16:44:41.905Z,101968.38
2022-11-29T16:46:44.067Z,101975.25
2022-11-29T16:48:46.117Z,101966.69
2022-11-29T16:51:11.318Z,101967.56
2022-11-29T16:53:32.152Z,101971.06
2022-11-29T16:55:34.222Z,101967.13
2022-11-29T16:57:39.483Z,101971.06
2022-11-29T16:59:41.932Z,101972.25
2022-11-29T17:01:44.951Z,101975.34
2022-11-29T17:03:47.796Z,101979.09
2022-11-29T17:05:51.062Z,101978.28
2022-11-29T17:07:53.608Z,101980.72
2022-11-29T17:09:56.998Z,101977.47
2022-11-29T17:12:01.137Z,101980.03
2022-11-29T17:14:03.078Z,101981.97
2022-11-29T17:16:08.869Z,101985.41
2022-11-29T17:18:11.716Z,101990.59
2022-11-29T17:20:14.195Z,101991.47
2022-11-29T17:22:16.131Z,101993.38
2022-11-29T17:24:21.149Z,101989.66
2022-11-29T17:26:24.254Z,101992.50
2022-11-29T17:28:26.000Z,101994.47
2022-11-29T17:30:30.165Z,102000.81
2022-11-29T17:32:35.208Z,101985.75
2022-11-29T17:34:37.112Z,101988.13
2022-11-29T17:36:40.568Z,101988.78
2022-11-29T17:38:44.625Z,101993.66
2022-11-29T17:40:46.752Z,102002.72
2022-11-29T17:42:48.832Z,102005.38
2022-11-29T17:44:50.767Z,102011.75
2022-11-29T17:46:52.958Z,102005.81
2022-11-29T17:48:56.441Z,101999.66
2022-11-29T17:51:01.049Z,102008.06
2022-11-29T17:53:03.566Z,102018.13
2022-11-29T17:55:07.052Z,102020.09
2022-11-29T17:57:09.133Z,102016.06
2022-11-29T17:59:11.234Z,102014.44
2022-11-29T18:01:17.165Z,102011.13
2022-11-29T18:03:18.825Z,102010.50
2022-11-29T18:05:21.452Z,102005.88
2022-11-29T18:07:23.677Z,102003.38
2022-11-29T18:09:26.169Z,102016.44
2022-11-29T18:11:31.158Z,102018.03
2022-11-29T18:13:33.327Z,102013.63
2022-11-29T18:15:36.681Z,102015.06
2022-11-29T18:17:39.447Z,102009.13
2022-11-29T18:19:42.582Z,102012.56
2022-11-29T18:21:45.016Z,102009.19
2022-11-29T18:23:46.915Z,102009.25
2022-11-29T18:26:02.427Z,102014.50
2022-11-29T18:28:04.652Z,102014.38
2022-11-29T18:30:08.011Z,102009.44
2022-11-29T18:32:09.917Z,102016.94
2022-11-29T18:34:13.616Z,102017.75
2022-11-29T18:36:19.632Z,102031.41
2022-11-29T18:38:21.714Z,102028.78
2022-11-29T18:40:23.621Z,102027.97
2022-11-29T18:42:25.478Z,102029.66
2022-11-29T18:44:29.680Z,102038.19
2022-11-29T18:46:33.157Z,102039.56
2022-11-29T18:48:35.972Z,102040.50
2022-11-29T18:50:38.100Z,102039.63
2022-11-29T18:52:40.901Z,102042.31
2022-11-29T18:54:42.999Z,102050.03
2022-11-29T18:56:45.937Z,102047.47
2022-11-29T18:58:58.015Z,102050.22
2022-11-29T19:01:11.693Z,102044.22
2022-11-29T19:03:13.523Z,102046.06
2022-11-29T19:05:15.496Z,102058.25
2022-11-29T19:07:17.369Z,102054.03
2022-11-29T19:09:21.735Z,102057.56
2022-11-29T19:11:27.792Z,102057.34
2022-11-29T19:13:29.601Z,102069.31
2022-11-29T19:15:31.996Z,102058.97
2022-11-29T19:17:37.607Z,102063.38
2022-11-29T19:19:42.141Z,102057.34
2022-11-29T19:21:43.988Z,102061.75
2022-11-29T19:23:52.382Z,102064.25
2022-11-29T19:25:54.227Z,102057.44
2022-11-29T19:27:56.017Z,102058.03
2022-11-29T19:29:57.977Z,102065.00
2022-11-29T19:31:59.867Z,102066.47
2022-11-29T19:34:02.150Z,102063.88
2022-11-29T19:36:10.677Z,102069.13
2022-11-29T19:38:12.596Z,102069.13
2022-11-29T19:40:14.551Z,102064.06
2022-11-29T19:42:16.516Z,102059.72
2022-11-29T19:44:18.336Z,102066.69
2022-11-29T19:46:23.193Z,102059.78
2022-11-29T19:48:25.127Z,102065.59
2022-11-29T19:50:27.022Z,102064.00
2022-11-29T19:52:28.883Z,102049.59
2022-11-29T19:54:30.657Z,102058.03
2022-11-29T19:56:33.102Z,102060.59
2022-11-29T19:58:35.050Z,102063.06
2022-11-29T20:00:36.877Z,102061.41
2022-11-29T20:02:38.772Z,102062.19
2022-11-29T20:04:40.956Z,102061.50
2022-11-29T20:06:43.585Z,102060.50
2022-11-29T20:08:46.161Z,102062.56
2022-11-29T20:10:47.947Z,102062.50
2022-11-29T20:12:49.815Z,102059.94
2022-11-29T20:14:51.657Z,102055.81
2022-11-29T20:16:53.532Z,102060.75
2022-11-29T20:18:58.531Z,102066.81
2022-11-29T20:21:04.551Z,102063.69
2022-11-29T20:23:06.626Z,102064.50
2022-11-29T20:25:08.823Z,102060.28
2022-11-29T20:27:12.606Z,102066.09
2022-11-29T20:29:21.565Z,102062.78
2022-11-29T20:31:23.721Z,102057.44
2022-11-29T20:33:27.879Z,102062.69
2022-11-29T20:35:29.961Z,102066.09
2022-11-29T20:37:53.575Z,102063.00
2022-11-29T20:40:02.515Z,102068.97
2022-11-29T20:42:22.292Z,102076.59
2022-11-29T20:44:44.996Z,102081.75
2022-11-29T20:46:47.009Z,102076.72
2022-11-29T20:48:50.047Z,102084.44
2022-11-29T20:50:58.432Z,102079.47
2022-11-29T20:53:18.616Z,102083.50
2022-11-29T20:55:20.817Z,102092.75
2022-11-29T20:57:22.520Z,102091.94
2022-11-29T20:59:24.175Z,102091.19
2022-11-29T21:01:25.869Z,102092.91
2022-11-29T21:03:28.933Z,102097.75
2022-11-29T21:05:31.968Z,102091.88
2022-11-29T21:07:33.853Z,102096.28
2022-11-29T21:09:35.631Z,102088.50
2022-11-29T21:11:37.713Z,102091.28
2022-11-29T21:13:39.775Z,102094.44
2022-11-29T21:15:42.124Z,102087.88
2022-11-29T21:17:44.711Z,102088.63
2022-11-29T21:19:46.702Z,102087.00
2022-11-29T21:22:31.279Z,102085.25
2022-11-29T21:25:23.876Z,102089.25
2022-11-29T21:27:56.417Z,102085.41
2022-11-29T21:30:30.343Z,102084.47
2022-11-29T21:32:58.509Z,102087.19
2022-11-29T21:35:20.605Z,102077.78
2022-11-29T21:37:53.978Z,102074.53
2022-11-29T21:40:26.588Z,102083.06
2022-11-29T21:42:57.609Z,102083.22
2022-11-29T21:45:21.180Z,102090.63
2022-11-29T21:48:01.811Z,102088.06
2022-11-29T21:50:34.404Z,102082.25
2022-11-29T21:53:05.480Z,102093.25
2022-11-29T21:55:32.149Z,102086.44
2022-11-29T21:57:45.542Z,102088.06
2022-11-29T22:02:28.576Z,102090.50
2022-11-29T22:04:51.697Z,102097.94
2022-11-29T22:07:08.043Z,102100.44
2022-11-29T22:09:11.453Z,102095.31
2022-11-29T22:11:15.826Z,102095.44
2022-11-29T22:13:17.576Z,102095.63
2022-11-29T22:15:24.466Z,102093.75
2022-11-29T22:17:26.927Z,102102.44
2022-11-29T22:19:36.761Z,102097.94
2022-11-29T22:21:40.682Z,102102.28
2022-11-29T22:23:42.533Z,102097.94
2022-11-29T22:25:44.381Z,102097.25
2022-11-29T22:27:48.722Z,102100.44
2022-11-29T22:29:50.512Z,102100.09
2022-11-29T22:31:55.001Z,102101.84
2022-11-29T22:33:57.362Z,102105.22
2022-11-29T22:36:04.183Z,102105.16
2022-11-29T22:38:05.911Z,102100.75
2022-11-29T22:40:08.356Z,102103.34
2022-11-29T22:42:10.242Z,102100.69
2022-11-29T22:44:12.116Z,102104.22
2022-11-29T22:46:16.821Z,102105.81
2022-11-29T22:48:19.177Z,102107.72
2022-11-29T22:50:21.022Z,102111.75
2022-11-29T22:52:22.802Z,102110.97
2022-11-29T22:54:24.610Z,102105.66
2022-11-29T22:56:29.351Z,102111.03
2022-11-29T22:58:31.376Z,102112.06
2022-11-29T23:00:34.896Z,102118.81
2022-11-29T23:02:36.795Z,102108.75
2022-11-29T23:04:38.576Z,102106.97
2022-11-29T23:06:45.313Z,102107.88
2022-11-29T23:08:48.800Z,102113.81
2022-11-29T23:10:57.179Z,102110.50
2022-11-29T23:12:59.160Z,102109.63
2022-11-29T23:15:02.384Z,102113.25
2022-11-29T23:17:04.465Z,102109.69
2022-11-29T23:19:06.998Z,102104.03
2022-11-29T23:21:11.230Z,102105.38
2022-11-29T23:23:13.447Z,102102.91
2022-11-29T23:25:15.920Z,102103.16
2022-11-29T23:27:17.974Z,102096.41
2022-11-29T23:29:20.542Z,102093.13
2022-11-29T23:31:23.441Z,102092.00
2022-11-29T23:33:26.520Z,102095.53
2022-11-29T23:35:30.326Z,102092.81
2022-11-29T23:37:32.701Z,102092.25
2022-11-29T23:39:34.411Z,102093.84
2022-11-29T23:41:37.229Z,102087.88
2022-11-29T23:43:40.750Z,102092.25
2022-11-29T23:45:43.544Z,102087.13
2022-11-29T23:47:45.500Z,102088.88
2022-11-29T23:49:47.538Z,102091.56
2022-11-29T23:51:49.367Z,102089.00
2022-11-29T23:53:52.773Z,102089.75
2022-11-29T23:56:06.073Z,102089.06
2022-11-29T23:58:09.168Z,102082.19
